sensor_id;sensor_type;location;lat;lon;timestamp;pressure;altitude;pressure_sealevel;temperature;humidity
62592;BME280;48659;41.622;2.276;2022-10-31T00:00:22;100305.02;;;17.79;53.31
62592;BME280;48659;41.622;2.276;2022-10-31T00:02:49;100307.08;;;17.26;55.29
62592;BME280;48659;41.622;2.276;2022-10-31T00:05:22;100309.68;;;15.65;59.27
62592;BME280;48659;41.622;2.276;2022-10-31T00:08:18;100302.90;;;15.85;58.54
62592;BME280;48659;41.622;2.276;2022-10-31T00:10:46;100304.99;;;16.65;57.42
62592;BME280;48659;41.622;2.276;2022-10-31T00:13:14;100304.24;;;16.09;57.88
62592;BME280;48659;41.622;2.276;2022-10-31T00:15:42;100302.27;;;15.66;58.29
62592;BME280;48659;41.622;2.276;2022-10-31T00:18:14;100314.53;;;16.66;56.34
62592;BME280;48659;41.622;2.276;2022-10-31T00:20:42;100304.85;;;17.12;55.51
62592;BME280;48659;41.622;2.276;2022-10-31T00:23:11;100309.64;;;16.68;55.60
62592;BME280;48659;41.622;2.276;2022-10-31T00:25:39;100309.17;;;17.00;56.24
62592;BME280;48659;41.622;2.276;2022-10-31T00:28:26;100301.77;;;16.45;58.47
62592;BME280;48659;41.622;2.276;2022-10-31T00:30:53;100306.07;;;15.46;62.11
62592;BME280;48659;41.622;2.276;2022-10-31T00:33:20;100305.41;;;14.82;63.63
62592;BME280;48659;41.622;2.276;2022-10-31T00:35:49;100306.33;;;14.89;64.22
62592;BME280;48659;41.622;2.276;2022-10-31T00:38:17;100308.64;;;15.49;64.05
62592;BME280;48659;41.622;2.276;2022-10-31T00:40:45;100308.65;;;15.84;60.80
62592;BME280;48659;41.622;2.276;2022-10-31T00:43:12;100308.02;;;16.14;59.86
62592;BME280;48659;41.622;2.276;2022-10-31T00:45:42;100307.88;;;16.44;58.57
62592;BME280;48659;41.622;2.276;2022-10-31T00:48:09;100307.41;;;15.01;61.60
62592;BME280;48659;41.622;2.276;2022-10-31T00:50:37;100310.26;;;14.22;64.35
62592;BME280;48659;41.622;2.276;2022-10-31T00:53:06;100314.34;;;14.14;65.63
62592;BME280;48659;41.622;2.276;2022-10-31T00:55:34;100312.37;;;14.26;65.82
62592;BME280;48659;41.622;2.276;2022-10-31T00:58:09;100313.17;;;14.22;66.27
62592;BME280;48659;41.622;2.276;2022-10-31T01:00:47;100309.43;;;14.95;64.16
62592;BME280;48659;41.622;2.276;2022-10-31T01:03:21;100307.84;;;14.47;65.27
62592;BME280;48659;41.622;2.276;2022-10-31T01:06:10;100308.39;;;15.22;63.12
62592;BME280;48659;41.622;2.276;2022-10-31T01:08:48;100300.44;;;16.12;60.72
62592;BME280;48659;41.622;2.276;2022-10-31T01:11:23;100304.37;;;14.48;65.22
62592;BME280;48659;41.622;2.276;2022-10-31T01:13:51;100300.73;;;14.37;66.52
62592;BME280;48659;41.622;2.276;2022-10-31T01:16:22;100302.06;;;14.20;66.77
62592;BME280;48659;41.622;2.276;2022-10-31T01:18:55;100299.67;;;14.21;66.30
62592;BME280;48659;41.622;2.276;2022-10-31T01:21:28;100297.79;;;14.58;66.01
62592;BME280;48659;41.622;2.276;2022-10-31T01:27:16;100292.90;;;16.16;60.36
62592;BME280;48659;41.622;2.276;2022-10-31T01:29:43;100290.75;;;16.46;58.60
62592;BME280;48659;41.622;2.276;2022-10-31T01:32:28;100290.84;;;14.70;61.92
62592;BME280;48659;41.622;2.276;2022-10-31T01:34:56;100283.68;;;15.78;60.90
62592;BME280;48659;41.622;2.276;2022-10-31T01:37:23;100286.77;;;16.95;56.97
62592;BME280;48659;41.622;2.276;2022-10-31T01:39:51;100284.93;;;16.24;57.58
62592;BME280;48659;41.622;2.276;2022-10-31T01:42:19;100285.19;;;16.28;57.91
62592;BME280;48659;41.622;2.276;2022-10-31T01:44:52;100282.12;;;15.61;58.62
62592;BME280;48659;41.622;2.276;2022-10-31T01:47:26;100280.39;;;16.00;57.38
62592;BME280;48659;41.622;2.276;2022-10-31T01:50:02;100283.58;;;16.39;56.31
62592;BME280;48659;41.622;2.276;2022-10-31T01:52:34;100276.60;;;16.04;57.85
62592;BME280;48659;41.622;2.276;2022-10-31T01:55:07;100281.33;;;14.88;60.51
62592;BME280;48659;41.622;2.276;2022-10-31T01:57:38;100280.17;;;14.96;60.59
62592;BME280;48659;41.622;2.276;2022-10-31T02:00:09;100272.61;;;15.69;58.33
62592;BME280;48659;41.622;2.276;2022-10-31T02:02:37;100279.17;;;15.68;59.56
62592;BME280;48659;41.622;2.276;2022-10-31T02:05:12;100281.48;;;13.67;62.53
62592;BME280;48659;41.622;2.276;2022-10-31T02:07:53;100280.72;;;13.96;64.39
62592;BME280;48659;41.622;2.276;2022-10-31T02:10:23;100284.67;;;13.57;65.76
62592;BME280;48659;41.622;2.276;2022-10-31T02:12:53;100285.90;;;12.95;68.49
62592;BME280;48659;41.622;2.276;2022-10-31T02:15:22;100282.83;;;13.08;68.03
62592;BME280;48659;41.622;2.276;2022-10-31T02:17:50;100282.62;;;13.19;68.13
62592;BME280;48659;41.622;2.276;2022-10-31T02:20:20;100276.66;;;14.00;65.34
62592;BME280;48659;41.622;2.276;2022-10-31T02:23:06;100273.25;;;14.77;61.42
62592;BME280;48659;41.622;2.276;2022-10-31T02:25:56;100272.82;;;16.11;57.40
62592;BME280;48659;41.622;2.276;2022-10-31T02:29:01;100272.14;;;15.38;57.85
62592;BME280;48659;41.622;2.276;2022-10-31T02:31:37;100277.08;;;15.22;59.41
62592;BME280;48659;41.622;2.276;2022-10-31T02:34:24;100272.63;;;14.99;59.58
62592;BME280;48659;41.622;2.276;2022-10-31T02:36:58;100270.74;;;15.09;59.30
62592;BME280;48659;41.622;2.276;2022-10-31T02:39:36;100265.83;;;15.10;59.50
62592;BME280;48659;41.622;2.276;2022-10-31T02:42:07;100268.99;;;13.42;64.92
62592;BME280;48659;41.622;2.276;2022-10-31T02:44:42;100267.70;;;14.08;63.16
62592;BME280;48659;41.622;2.276;2022-10-31T02:47:18;100270.24;;;13.91;64.25
62592;BME280;48659;41.622;2.276;2022-10-31T02:49:54;100266.10;;;14.07;64.12
62592;BME280;48659;41.622;2.276;2022-10-31T02:52:25;100256.83;;;15.37;58.58
62592;BME280;48659;41.622;2.276;2022-10-31T02:54:53;100254.71;;;15.83;57.65
62592;BME280;48659;41.622;2.276;2022-10-31T02:57:25;100257.45;;;14.88;59.16
62592;BME280;48659;41.622;2.276;2022-10-31T03:00:07;100251.28;;;15.88;57.13
62592;BME280;48659;41.622;2.276;2022-10-31T03:02:58;100252.83;;;14.99;60.27
62592;BME280;48659;41.622;2.276;2022-10-31T03:05:41;100253.26;;;15.04;59.75
62592;BME280;48659;41.622;2.276;2022-10-31T03:08:22;100246.70;;;15.45;58.33
62592;BME280;48659;41.622;2.276;2022-10-31T03:10:57;100242.87;;;15.51;58.19
62592;BME280;48659;41.622;2.276;2022-10-31T03:13:34;100247.75;;;13.73;62.43
62592;BME280;48659;41.622;2.276;2022-10-31T03:16:08;100247.02;;;13.10;63.31
62592;BME280;48659;41.622;2.276;2022-10-31T03:18:57;100247.53;;;14.39;62.18
62592;BME280;48659;41.622;2.276;2022-10-31T03:21:32;100244.68;;;14.82;59.83
62592;BME280;48659;41.622;2.276;2022-10-31T03:24:02;100250.86;;;14.91;59.48
62592;BME280;48659;41.622;2.276;2022-10-31T03:26:32;100252.64;;;16.12;56.26
62592;BME280;48659;41.622;2.276;2022-10-31T03:29:04;100255.19;;;13.56;61.66
62592;BME280;48659;41.622;2.276;2022-10-31T03:31:35;100254.67;;;13.93;61.59
62592;BME280;48659;41.622;2.276;2022-10-31T03:34:04;100254.95;;;14.94;59.73
62592;BME280;48659;41.622;2.276;2022-10-31T03:36:35;100256.60;;;13.69;62.17
62592;BME280;48659;41.622;2.276;2022-10-31T03:39:08;100256.32;;;13.96;62.38
62592;BME280;48659;41.622;2.276;2022-10-31T03:41:40;100260.38;;;13.96;62.36
62592;BME280;48659;41.622;2.276;2022-10-31T03:44:11;100261.37;;;13.81;62.20
62592;BME280;48659;41.622;2.276;2022-10-31T03:46:40;100254.14;;;14.80;59.33
62592;BME280;48659;41.622;2.276;2022-10-31T03:49:08;100258.67;;;13.52;63.82
62592;BME280;48659;41.622;2.276;2022-10-31T03:51:42;100257.76;;;13.88;61.95
62592;BME280;48659;41.622;2.276;2022-10-31T03:54:16;100251.58;;;15.20;58.78
62592;BME280;48659;41.622;2.276;2022-10-31T03:56:51;100257.39;;;14.04;62.00
62592;BME280;48659;41.622;2.276;2022-10-31T03:59:23;100255.84;;;12.87;65.52
62592;BME280;48659;41.622;2.276;2022-10-31T04:01:56;100250.79;;;14.47;61.47
62592;BME280;48659;41.622;2.276;2022-10-31T04:04:25;100245.59;;;14.52;62.47
62592;BME280;48659;41.622;2.276;2022-10-31T04:06:55;100245.33;;;15.39;58.93
62592;BME280;48659;41.622;2.276;2022-10-31T04:09:25;100243.71;;;15.03;59.61
62592;BME280;48659;41.622;2.276;2022-10-31T04:11:54;100237.25;;;15.38;58.19
62592;BME280;48659;41.622;2.276;2022-10-31T04:14:26;100240.84;;;14.69;60.10
62592;BME280;48659;41.622;2.276;2022-10-31T04:16:54;100242.27;;;15.89;57.23
62592;BME280;48659;41.622;2.276;2022-10-31T04:19:21;100241.62;;;15.85;57.35
62592;BME280;48659;41.622;2.276;2022-10-31T04:21:49;100245.85;;;14.29;59.78
62592;BME280;48659;41.622;2.276;2022-10-31T04:24:17;100242.16;;;15.72;57.84
62592;BME280;48659;41.622;2.276;2022-10-31T04:26:44;100244.68;;;15.44;57.17
62592;BME280;48659;41.622;2.276;2022-10-31T04:29:13;100243.11;;;15.82;56.99
62592;BME280;48659;41.622;2.276;2022-10-31T04:31:40;100244.05;;;16.12;55.56
62592;BME280;48659;41.622;2.276;2022-10-31T04:34:07;100242.17;;;16.58;54.62
62592;BME280;48659;41.622;2.276;2022-10-31T04:36:35;100240.17;;;15.46;56.94
62592;BME280;48659;41.622;2.276;2022-10-31T04:39:02;100237.77;;;16.11;55.55
62592;BME280;48659;41.622;2.276;2022-10-31T04:41:30;100229.79;;;15.41;57.41
62592;BME280;48659;41.622;2.276;2022-10-31T04:43:57;100234.60;;;15.88;56.02
62592;BME280;48659;41.622;2.276;2022-10-31T04:46:24;100233.86;;;15.31;57.30
62592;BME280;48659;41.622;2.276;2022-10-31T04:48:51;100234.12;;;15.94;56.63
62592;BME280;48659;41.622;2.276;2022-10-31T04:51:18;100230.05;;;16.08;56.70
62592;BME280;48659;41.622;2.276;2022-10-31T04:53:46;100232.80;;;16.30;54.92
62592;BME280;48659;41.622;2.276;2022-10-31T04:56:13;100230.39;;;15.77;56.30
62592;BME280;48659;41.622;2.276;2022-10-31T04:58:41;100231.94;;;16.23;54.92
62592;BME280;48659;41.622;2.276;2022-10-31T05:01:08;100234.53;;;16.05;54.76
62592;BME280;48659;41.622;2.276;2022-10-31T05:03:36;100234.34;;;16.04;54.91
62592;BME280;48659;41.622;2.276;2022-10-31T05:06:03;100233.91;;;16.01;55.08
62592;BME280;48659;41.622;2.276;2022-10-31T05:08:31;100235.65;;;16.11;54.79
62592;BME280;48659;41.622;2.276;2022-10-31T05:11:01;100232.28;;;16.42;54.47
62592;BME280;48659;41.622;2.276;2022-10-31T05:13:29;100231.28;;;16.18;55.02
62592;BME280;48659;41.622;2.276;2022-10-31T05:15:56;100234.06;;;16.22;54.80
62592;BME280;48659;41.622;2.276;2022-10-31T05:18:23;100232.76;;;16.02;54.67
62592;BME280;48659;41.622;2.276;2022-10-31T05:20:50;100231.69;;;16.22;54.25
62592;BME280;48659;41.622;2.276;2022-10-31T05:23:17;100230.58;;;16.17;54.86
62592;BME280;48659;41.622;2.276;2022-10-31T05:25:44;100232.76;;;15.81;55.44
62592;BME280;48659;41.622;2.276;2022-10-31T05:28:11;100234.40;;;16.44;53.66
62592;BME280;48659;41.622;2.276;2022-10-31T05:30:38;100237.23;;;15.88;54.33
62592;BME280;48659;41.622;2.276;2022-10-31T05:33:11;100236.81;;;15.74;54.89
62592;BME280;48659;41.622;2.276;2022-10-31T05:35:39;100237.57;;;14.80;58.11
62592;BME280;48659;41.622;2.276;2022-10-31T05:38:05;100231.22;;;15.72;55.55
62592;BME280;48659;41.622;2.276;2022-10-31T05:40:33;100233.49;;;16.25;53.82
62592;BME280;48659;41.622;2.276;2022-10-31T05:43:05;100228.06;;;15.74;55.61
62592;BME280;48659;41.622;2.276;2022-10-31T05:45:32;100231.48;;;13.41;60.24
62592;BME280;48659;41.622;2.276;2022-10-31T05:48:01;100235.14;;;13.35;61.55
62592;BME280;48659;41.622;2.276;2022-10-31T05:50:30;100232.71;;;15.25;56.78
62592;BME280;48659;41.622;2.276;2022-10-31T05:52:59;100232.46;;;15.47;56.04
62592;BME280;48659;41.622;2.276;2022-10-31T05:55:27;100231.46;;;15.53;55.42
62592;BME280;48659;41.622;2.276;2022-10-31T05:57:55;100236.34;;;15.64;55.58
62592;BME280;48659;41.622;2.276;2022-10-31T06:00:23;100242.66;;;15.47;56.04
62592;BME280;48659;41.622;2.276;2022-10-31T06:02:58;100241.06;;;16.04;55.41
62592;BME280;48659;41.622;2.276;2022-10-31T06:05:26;100244.89;;;14.97;57.53
62592;BME280;48659;41.622;2.276;2022-10-31T06:07:53;100252.31;;;13.46;61.77
62592;BME280;48659;41.622;2.276;2022-10-31T06:10:21;100249.13;;;15.63;56.22
62592;BME280;48659;41.622;2.276;2022-10-31T06:12:48;100248.19;;;15.98;55.13
62592;BME280;48659;41.622;2.276;2022-10-31T06:15:16;100244.49;;;15.93;55.55
62592;BME280;48659;41.622;2.276;2022-10-31T06:17:43;100243.53;;;16.30;54.54
62592;BME280;48659;41.622;2.276;2022-10-31T06:20:11;100244.54;;;16.66;53.36
62592;BME280;48659;41.622;2.276;2022-10-31T06:22:39;100240.51;;;16.45;53.57
62592;BME280;48659;41.622;2.276;2022-10-31T06:25:07;100240.53;;;16.19;53.80
62592;BME280;48659;41.622;2.276;2022-10-31T06:27:35;100239.71;;;16.17;54.52
62592;BME280;48659;41.622;2.276;2022-10-31T06:30:02;100242.03;;;16.09;54.87
62592;BME280;48659;41.622;2.276;2022-10-31T06:32:29;100246.78;;;15.69;56.79
62592;BME280;48659;41.622;2.276;2022-10-31T06:34:57;100249.12;;;16.13;55.64
62592;BME280;48659;41.622;2.276;2022-10-31T06:37:25;100254.66;;;16.24;54.75
62592;BME280;48659;41.622;2.276;2022-10-31T06:39:53;100256.87;;;15.86;55.55
62592;BME280;48659;41.622;2.276;2022-10-31T06:42:20;100262.45;;;16.12;55.00
62592;BME280;48659;41.622;2.276;2022-10-31T06:44:47;100263.23;;;16.12;55.27
62592;BME280;48659;41.622;2.276;2022-10-31T06:47:14;100266.09;;;15.88;55.67
62592;BME280;48659;41.622;2.276;2022-10-31T06:49:42;100269.86;;;16.10;55.32
62592;BME280;48659;41.622;2.276;2022-10-31T06:52:10;100271.74;;;16.03;55.25
62592;BME280;48659;41.622;2.276;2022-10-31T06:54:37;100271.86;;;16.01;55.94
62592;BME280;48659;41.622;2.276;2022-10-31T06:57:13;100272.97;;;16.44;55.08
62592;BME280;48659;41.622;2.276;2022-10-31T06:59:40;100277.85;;;16.55;55.02
62592;BME280;48659;41.622;2.276;2022-10-31T07:02:09;100278.16;;;16.59;55.55
62592;BME280;48659;41.622;2.276;2022-10-31T07:04:37;100285.71;;;13.60;61.67
62592;BME280;48659;41.622;2.276;2022-10-31T07:07:04;100283.87;;;15.24;58.41
62592;BME280;48659;41.622;2.276;2022-10-31T07:09:32;100288.07;;;15.14;58.68
62592;BME280;48659;41.622;2.276;2022-10-31T07:12:00;100295.32;;;14.73;60.53
62592;BME280;48659;41.622;2.276;2022-10-31T07:14:28;100293.12;;;15.52;58.73
62592;BME280;48659;41.622;2.276;2022-10-31T07:16:56;100300.62;;;15.69;58.90
62592;BME280;48659;41.622;2.276;2022-10-31T07:19:23;100300.03;;;15.80;57.75
62592;BME280;48659;41.622;2.276;2022-10-31T07:21:51;100300.61;;;15.69;58.40
62592;BME280;48659;41.622;2.276;2022-10-31T07:24:18;100306.65;;;14.88;61.38
62592;BME280;48659;41.622;2.276;2022-10-31T07:26:46;100308.99;;;15.38;60.01
62592;BME280;48659;41.622;2.276;2022-10-31T07:29:13;100306.68;;;15.11;60.55
62592;BME280;48659;41.622;2.276;2022-10-31T07:31:41;100309.61;;;15.56;61.35
62592;BME280;48659;41.622;2.276;2022-10-31T07:34:09;100315.12;;;15.22;62.38
62592;BME280;48659;41.622;2.276;2022-10-31T07:36:37;100314.63;;;15.72;60.53
62592;BME280;48659;41.622;2.276;2022-10-31T07:39:04;100317.15;;;16.15;59.01
62592;BME280;48659;41.622;2.276;2022-10-31T07:41:32;100314.64;;;16.88;56.82
62592;BME280;48659;41.622;2.276;2022-10-31T07:43:59;100315.35;;;16.45;57.57
62592;BME280;48659;41.622;2.276;2022-10-31T07:46:28;100317.92;;;16.59;56.57
62592;BME280;48659;41.622;2.276;2022-10-31T07:48:55;100314.11;;;17.45;54.34
62592;BME280;48659;41.622;2.276;2022-10-31T07:51:23;100321.02;;;16.86;56.28
62592;BME280;48659;41.622;2.276;2022-10-31T07:53:50;100320.73;;;17.53;54.07
62592;BME280;48659;41.622;2.276;2022-10-31T07:56:17;100323.36;;;17.60;53.91
62592;BME280;48659;41.622;2.276;2022-10-31T07:58:45;100323.37;;;17.01;55.47
62592;BME280;48659;41.622;2.276;2022-10-31T08:01:12;100316.75;;;17.72;52.59
62592;BME280;48659;41.622;2.276;2022-10-31T08:03:40;100316.56;;;16.64;54.78
62592;BME280;48659;41.622;2.276;2022-10-31T08:06:09;100316.76;;;15.07;59.34
62592;BME280;48659;41.622;2.276;2022-10-31T08:08:37;100318.11;;;16.28;57.15
62592;BME280;48659;41.622;2.276;2022-10-31T08:11:05;100316.79;;;17.17;54.64
62592;BME280;48659;41.622;2.276;2022-10-31T08:13:33;100307.13;;;18.40;51.36
62592;BME280;48659;41.622;2.276;2022-10-31T08:16:01;100316.42;;;16.66;54.33
62592;BME280;48659;41.622;2.276;2022-10-31T08:18:28;100317.18;;;16.73;53.80
62592;BME280;48659;41.622;2.276;2022-10-31T08:20:56;100316.94;;;16.86;54.45
62592;BME280;48659;41.622;2.276;2022-10-31T08:23:23;100307.74;;;17.63;53.41
62592;BME280;48659;41.622;2.276;2022-10-31T08:25:50;100304.69;;;18.30;50.36
62592;BME280;48659;41.622;2.276;2022-10-31T08:28:18;100308.36;;;18.70;48.71
62592;BME280;48659;41.622;2.276;2022-10-31T08:30:45;100311.72;;;18.37;50.36
62592;BME280;48659;41.622;2.276;2022-10-31T08:33:15;100308.47;;;18.86;48.90
62592;BME280;48659;41.622;2.276;2022-10-31T08:35:43;100309.77;;;19.09;47.99
62592;BME280;48659;41.622;2.276;2022-10-31T08:38:11;100308.67;;;19.53;47.32
62592;BME280;48659;41.622;2.276;2022-10-31T08:40:40;100304.27;;;19.95;47.16
62592;BME280;48659;41.622;2.276;2022-10-31T08:43:11;100300.99;;;19.92;47.14
62592;BME280;48659;41.622;2.276;2022-10-31T08:45:40;100302.69;;;17.83;50.86
62592;BME280;48659;41.622;2.276;2022-10-31T08:48:10;100299.77;;;19.13;47.98
62592;BME280;48659;41.622;2.276;2022-10-31T08:50:38;100297.01;;;19.75;48.00
62592;BME280;48659;41.622;2.276;2022-10-31T08:53:07;100287.64;;;19.82;46.61
62592;BME280;48659;41.622;2.276;2022-10-31T08:55:37;100290.13;;;19.87;46.50
62592;BME280;48659;41.622;2.276;2022-10-31T08:58:06;100288.44;;;19.95;46.63
62592;BME280;48659;41.622;2.276;2022-10-31T09:00:34;100283.82;;;20.07;46.27
62592;BME280;48659;41.622;2.276;2022-10-31T09:03:03;100282.19;;;19.78;46.12
62592;BME280;48659;41.622;2.276;2022-10-31T09:05:32;100282.90;;;20.50;45.69
62592;BME280;48659;41.622;2.276;2022-10-31T09:08:02;100283.09;;;20.15;45.42
62592;BME280;48659;41.622;2.276;2022-10-31T09:10:31;100279.51;;;20.09;45.96
62592;BME280;48659;41.622;2.276;2022-10-31T09:13:01;100280.50;;;19.85;46.74
62592;BME280;48659;41.622;2.276;2022-10-31T09:15:29;100281.81;;;20.28;46.28
62592;BME280;48659;41.622;2.276;2022-10-31T09:17:57;100285.84;;;20.27;45.08
62592;BME280;48659;41.622;2.276;2022-10-31T09:20:24;100284.50;;;20.33;45.15
62592;BME280;48659;41.622;2.276;2022-10-31T09:22:56;100284.71;;;20.71;45.08
62592;BME280;48659;41.622;2.276;2022-10-31T09:25:23;100286.18;;;20.03;45.97
62592;BME280;48659;41.622;2.276;2022-10-31T09:27:55;100286.13;;;20.92;44.88
62592;BME280;48659;41.622;2.276;2022-10-31T09:30:23;100290.67;;;21.00;44.25
62592;BME280;48659;41.622;2.276;2022-10-31T09:32:55;100287.05;;;21.54;43.48
62592;BME280;48659;41.622;2.276;2022-10-31T09:35:23;100290.64;;;21.44;43.85
62592;BME280;48659;41.622;2.276;2022-10-31T09:37:54;100289.43;;;21.50;44.03
62592;BME280;48659;41.622;2.276;2022-10-31T09:40:22;100284.57;;;20.00;47.38
62592;BME280;48659;41.622;2.276;2022-10-31T09:42:58;100285.68;;;20.04;50.27
62592;BME280;48659;41.622;2.276;2022-10-31T09:45:34;100286.79;;;21.70;45.79
62592;BME280;48659;41.622;2.276;2022-10-31T09:48:14;100280.68;;;21.64;46.39
62592;BME280;48659;41.622;2.276;2022-10-31T09:50:46;100274.88;;;21.43;45.83
62592;BME280;48659;41.622;2.276;2022-10-31T09:53:22;100278.39;;;21.59;44.03
62592;BME280;48659;41.622;2.276;2022-10-31T09:55:51;100272.02;;;22.23;43.91
62592;BME280;48659;41.622;2.276;2022-10-31T09:58:24;100270.22;;;22.22;42.90
62592;BME280;48659;41.622;2.276;2022-10-31T10:00:54;100268.56;;;22.36;42.87
62592;BME280;48659;41.622;2.276;2022-10-31T10:03:31;100266.29;;;22.54;42.42
62592;BME280;48659;41.622;2.276;2022-10-31T10:06:11;100265.09;;;22.23;42.92
62592;BME280;48659;41.622;2.276;2022-10-31T10:08:41;100264.05;;;22.60;42.60
62592;BME280;48659;41.622;2.276;2022-10-31T10:11:22;100265.85;;;23.22;41.60
62592;BME280;48659;41.622;2.276;2022-10-31T10:14:05;100263.26;;;23.20;41.56
62592;BME280;48659;41.622;2.276;2022-10-31T10:16:59;100260.02;;;21.69;44.35
62592;BME280;48659;41.622;2.276;2022-10-31T10:19:50;100262.23;;;22.77;42.51
62592;BME280;48659;41.622;2.276;2022-10-31T10:22:27;100260.87;;;22.32;43.04
62592;BME280;48659;41.622;2.276;2022-10-31T10:25:14;100262.14;;;23.20;42.18
62592;BME280;48659;41.622;2.276;2022-10-31T10:27:50;100255.40;;;21.81;44.39
62592;BME280;48659;41.622;2.276;2022-10-31T10:30:21;100247.10;;;21.74;44.72
62592;BME280;48659;41.622;2.276;2022-10-31T10:32:51;100241.74;;;22.37;43.93
62592;BME280;48659;41.622;2.276;2022-10-31T10:35:24;100243.45;;;21.41;44.92
62592;BME280;48659;41.622;2.276;2022-10-31T10:37:56;100247.45;;;21.23;45.42
62592;BME280;48659;41.622;2.276;2022-10-31T10:40:27;100245.94;;;21.33;45.90
62592;BME280;48659;41.622;2.276;2022-10-31T10:43:18;100240.40;;;21.24;46.23
62592;BME280;48659;41.622;2.276;2022-10-31T10:45:50;100228.60;;;22.09;44.55
62592;BME280;48659;41.622;2.276;2022-10-31T10:48:27;100229.33;;;22.64;43.74
62592;BME280;48659;41.622;2.276;2022-10-31T10:51:10;100226.61;;;22.71;43.69
62592;BME280;48659;41.622;2.276;2022-10-31T10:53:49;100226.13;;;21.85;44.13
62592;BME280;48659;41.622;2.276;2022-10-31T10:56:25;100221.87;;;23.66;42.06
62592;BME280;48659;41.622;2.276;2022-10-31T10:58:57;100221.95;;;23.47;41.53
62592;BME280;48659;41.622;2.276;2022-10-31T11:01:25;100216.06;;;24.12;41.43
62592;BME280;48659;41.622;2.276;2022-10-31T11:03:52;100218.41;;;21.92;44.05
62592;BME280;48659;41.622;2.276;2022-10-31T11:06:22;100218.37;;;22.21;43.75
62592;BME280;48659;41.622;2.276;2022-10-31T11:08:50;100214.92;;;21.81;44.68
62592;BME280;48659;41.622;2.276;2022-10-31T11:11:24;100213.38;;;22.09;44.26
62592;BME280;48659;41.622;2.276;2022-10-31T11:13:57;100217.48;;;23.15;42.97
62592;BME280;48659;41.622;2.276;2022-10-31T11:16:31;100218.56;;;21.54;45.54
62592;BME280;48659;41.622;2.276;2022-10-31T11:19:18;100209.12;;;23.60;42.89
62592;BME280;48659;41.622;2.276;2022-10-31T11:21:47;100211.51;;;23.17;43.58
62592;BME280;48659;41.622;2.276;2022-10-31T11:24:17;100211.98;;;22.99;44.00
62592;BME280;48659;41.622;2.276;2022-10-31T11:26:46;100205.79;;;22.77;44.21
62592;BME280;48659;41.622;2.276;2022-10-31T11:29:16;100197.22;;;23.05;43.27
62592;BME280;48659;41.622;2.276;2022-10-31T11:31:46;100197.58;;;22.67;44.33
62592;BME280;48659;41.622;2.276;2022-10-31T11:34:21;100193.33;;;23.41;43.12
62592;BME280;48659;41.622;2.276;2022-10-31T11:36:50;100189.48;;;24.23;41.66
62592;BME280;48659;41.622;2.276;2022-10-31T11:39:22;100189.53;;;25.00;40.33
62592;BME280;48659;41.622;2.276;2022-10-31T11:41:51;100191.40;;;22.80;43.51
62592;BME280;48659;41.622;2.276;2022-10-31T11:44:22;100182.40;;;23.88;42.00
62592;BME280;48659;41.622;2.276;2022-10-31T11:46:53;100180.26;;;23.51;42.97
62592;BME280;48659;41.622;2.276;2022-10-31T11:49:28;100174.22;;;23.88;41.86
62592;BME280;48659;41.622;2.276;2022-10-31T11:51:58;100167.71;;;22.54;44.83
62592;BME280;48659;41.622;2.276;2022-10-31T11:54:29;100163.05;;;23.12;43.80
62592;BME280;48659;41.622;2.276;2022-10-31T11:57:00;100163.69;;;24.12;42.24
62592;BME280;48659;41.622;2.276;2022-10-31T11:59:30;100156.11;;;24.70;40.52
62592;BME280;48659;41.622;2.276;2022-10-31T12:01:59;100157.43;;;24.18;41.05
62592;BME280;48659;41.622;2.276;2022-10-31T12:04:35;100153.66;;;24.28;41.37
62592;BME280;48659;41.622;2.276;2022-10-31T12:07:09;100149.74;;;23.46;42.03
62592;BME280;48659;41.622;2.276;2022-10-31T12:09:37;100144.59;;;24.11;40.79
62592;BME280;48659;41.622;2.276;2022-10-31T12:12:34;100147.89;;;24.41;40.48
62592;BME280;48659;41.622;2.276;2022-10-31T12:15:13;100142.07;;;24.04;41.49
62592;BME280;48659;41.622;2.276;2022-10-31T12:17:47;100140.26;;;23.87;41.73
62592;BME280;48659;41.622;2.276;2022-10-31T12:20:24;100132.51;;;24.06;41.00
62592;BME280;48659;41.622;2.276;2022-10-31T12:23:00;100127.32;;;23.56;42.02
62592;BME280;48659;41.622;2.276;2022-10-31T12:25:46;100126.51;;;24.57;40.31
62592;BME280;48659;41.622;2.276;2022-10-31T12:29:38;100120.73;;;23.73;41.82
62592;BME280;48659;41.622;2.276;2022-10-31T12:32:24;100119.56;;;23.27;42.20
62592;BME280;48659;41.622;2.276;2022-10-31T12:35:10;100120.88;;;24.52;40.76
62592;BME280;48659;41.622;2.276;2022-10-31T12:37:52;100116.79;;;24.20;40.78
62592;BME280;48659;41.622;2.276;2022-10-31T12:40:35;100110.37;;;23.91;40.92
62592;BME280;48659;41.622;2.276;2022-10-31T12:43:20;100107.36;;;24.44;40.04
62592;BME280;48659;41.622;2.276;2022-10-31T12:45:54;100104.74;;;24.02;41.45
62592;BME280;48659;41.622;2.276;2022-10-31T12:48:38;100103.75;;;22.30;44.44
62592;BME280;48659;41.622;2.276;2022-10-31T12:51:15;100096.35;;;24.19;41.54
62592;BME280;48659;41.622;2.276;2022-10-31T12:53:56;100092.76;;;23.36;42.42
62592;BME280;48659;41.622;2.276;2022-10-31T12:56:46;100088.90;;;24.05;41.40
62592;BME280;48659;41.622;2.276;2022-10-31T12:59:21;100082.30;;;24.08;41.40
62592;BME280;48659;41.622;2.276;2022-10-31T13:01:55;100077.04;;;24.54;40.47
62592;BME280;48659;41.622;2.276;2022-10-31T13:04:39;100073.96;;;23.46;42.48
62592;BME280;48659;41.622;2.276;2022-10-31T13:07:13;100075.70;;;24.19;41.12
62592;BME280;48659;41.622;2.276;2022-10-31T13:09:47;100067.81;;;22.73;43.55
62592;BME280;48659;41.622;2.276;2022-10-31T13:12:19;100066.45;;;23.76;42.79
62592;BME280;48659;41.622;2.276;2022-10-31T13:14:51;100068.26;;;23.91;41.50
62592;BME280;48659;41.622;2.276;2022-10-31T13:17:25;100062.19;;;24.45;40.76